sensor_id;sensor_type;location;lat;lon;timestamp;P1;durP1;ratioP1;P2;durP2;ratioP2
25569;SDS011;17955;45.542;9.238;2022-07-22T00:00:06;11.30;;;5.47;;
25569;SDS011;17955;45.542;9.238;2022-07-22T00:02:34;10.18;;;5.80;;
25569;SDS011;17955;45.542;9.238;2022-07-22T00:05:01;10.73;;;6.15;;
25569;SDS011;17955;45.542;9.238;2022-07-22T00:07:30;14.27;;;6.13;;
25569;SDS011;17955;45.542;9.238;2022-07-22T00:09:57;17.63;;;5.55;;
25569;SDS011;17955;45.542;9.238;2022-07-22T00:12:24;8.77;;;5.47;;
25569;SDS011;17955;45.542;9.238;2022-07-22T00:14:52;13.25;;;5.78;;
25569;SDS011;17955;45.542;9.238;2022-07-22T00:17:19;15.43;;;5.93;;
25569;SDS011;17955;45.542;9.238;2022-07-22T00:19:46;14.35;;;6.05;;
25569;SDS011;17955;45.542;9.238;2022-07-22T00:22:13;10.07;;;5.65;;
25569;SDS011;17955;45.542;9.238;2022-07-22T00:24:41;11.13;;;6.28;;
25569;SDS011;17955;45.542;9.238;2022-07-22T00:27:08;21.33;;;5.95;;
25569;SDS011;17955;45.542;9.238;2022-07-22T00:29:35;9.52;;;5.47;;
25569;SDS011;17955;45.542;9.238;2022-07-22T00:32:02;8.75;;;5.53;;
25569;SDS011;17955;45.542;9.238;2022-07-22T00:34:30;10.13;;;5.68;;
25569;SDS011;17955;45.542;9.238;2022-07-22T00:36:57;11.20;;;6.05;;
25569;SDS011;17955;45.542;9.238;2022-07-22T00:39:24;9.10;;;5.72;;
25569;SDS011;17955;45.542;9.238;2022-07-22T00:41:53;13.02;;;5.03;;
25569;SDS011;17955;45.542;9.238;2022-07-22T00:44:20;12.45;;;5.60;;
25569;SDS011;17955;45.542;9.238;2022-07-22T00:46:47;9.48;;;6.03;;
25569;SDS011;17955;45.542;9.238;2022-07-22T00:49:14;16.10;;;5.72;;
25569;SDS011;17955;45.542;9.238;2022-07-22T00:51:42;13.98;;;5.85;;
25569;SDS011;17955;45.542;9.238;2022-07-22T00:54:09;10.05;;;6.03;;
25569;SDS011;17955;45.542;9.238;2022-07-22T00:56:37;13.07;;;5.82;;
25569;SDS011;17955;45.542;9.238;2022-07-22T00:59:11;13.13;;;6.28;;
25569;SDS011;17955;45.542;9.238;2022-07-22T01:01:38;12.63;;;5.30;;
25569;SDS011;17955;45.542;9.238;2022-07-22T01:04:05;10.75;;;5.05;;
25569;SDS011;17955;45.542;9.238;2022-07-22T01:06:33;10.63;;;5.72;;
25569;SDS011;17955;45.542;9.238;2022-07-22T01:09:00;9.73;;;5.93;;
25569;SDS011;17955;45.542;9.238;2022-07-22T01:11:27;11.10;;;6.00;;
25569;SDS011;17955;45.542;9.238;2022-07-22T01:13:54;13.80;;;6.07;;
25569;SDS011;17955;45.542;9.238;2022-07-22T01:16:24;9.00;;;5.50;;
25569;SDS011;17955;45.542;9.238;2022-07-22T01:18:51;10.20;;;5.72;;
25569;SDS011;17955;45.542;9.238;2022-07-22T01:21:20;8.90;;;5.65;;
25569;SDS011;17955;45.542;9.238;2022-07-22T01:23:47;9.20;;;5.78;;
25569;SDS011;17955;45.542;9.238;2022-07-22T01:26:15;13.50;;;5.43;;
25569;SDS011;17955;45.542;9.238;2022-07-22T01:28:42;8.63;;;5.72;;
25569;SDS011;17955;45.542;9.238;2022-07-22T01:31:10;12.60;;;6.05;;
25569;SDS011;17955;45.542;9.238;2022-07-22T01:33:37;11.20;;;5.65;;
25569;SDS011;17955;45.542;9.238;2022-07-22T01:36:04;13.15;;;6.00;;
25569;SDS011;17955;45.542;9.238;2022-07-22T01:38:34;10.40;;;5.15;;
25569;SDS011;17955;45.542;9.238;2022-07-22T01:41:01;11.55;;;5.50;;
25569;SDS011;17955;45.542;9.238;2022-07-22T01:43:28;12.55;;;6.07;;
25569;SDS011;17955;45.542;9.238;2022-07-22T01:45:56;11.80;;;6.22;;
25569;SDS011;17955;45.542;9.238;2022-07-22T01:48:23;13.02;;;5.80;;
25569;SDS011;17955;45.542;9.238;2022-07-22T01:50:51;9.18;;;5.93;;
25569;SDS011;17955;45.542;9.238;2022-07-22T01:53:18;8.50;;;5.78;;
25569;SDS011;17955;45.542;9.238;2022-07-22T01:55:47;10.55;;;6.00;;
25569;SDS011;17955;45.542;9.238;2022-07-22T01:58:16;11.55;;;5.70;;
25569;SDS011;17955;45.542;9.238;2022-07-22T02:00:44;10.63;;;5.93;;
25569;SDS011;17955;45.542;9.238;2022-07-22T02:03:11;8.45;;;5.60;;
25569;SDS011;17955;45.542;9.238;2022-07-22T02:05:38;9.98;;;5.22;;
25569;SDS011;17955;45.542;9.238;2022-07-22T02:08:16;9.98;;;5.68;;
25569;SDS011;17955;45.542;9.238;2022-07-22T02:11:14;9.27;;;5.32;;
25569;SDS011;17955;45.542;9.238;2022-07-22T02:13:53;11.02;;;5.75;;
25569;SDS011;17955;45.542;9.238;2022-07-22T02:16:20;13.43;;;6.07;;
25569;SDS011;17955;45.542;9.238;2022-07-22T02:18:49;11.50;;;5.72;;
25569;SDS011;17955;45.542;9.238;2022-07-22T02:21:16;10.23;;;6.00;;
25569;SDS011;17955;45.542;9.238;2022-07-22T02:23:43;11.52;;;5.43;;
25569;SDS011;17955;45.542;9.238;2022-07-22T02:26:11;9.07;;;5.72;;
25569;SDS011;17955;45.542;9.238;2022-07-22T02:28:39;8.45;;;5.57;;
25569;SDS011;17955;45.542;9.238;2022-07-22T02:31:06;9.95;;;5.80;;
25569;SDS011;17955;45.542;9.238;2022-07-22T02:33:33;10.15;;;5.90;;
25569;SDS011;17955;45.542;9.238;2022-07-22T02:36:01;11.45;;;5.60;;
25569;SDS011;17955;45.542;9.238;2022-07-22T02:38:29;10.75;;;5.82;;
25569;SDS011;17955;45.542;9.238;2022-07-22T02:40:56;9.82;;;6.30;;
25569;SDS011;17955;45.542;9.238;2022-07-22T02:43:23;9.10;;;5.38;;
25569;SDS011;17955;45.542;9.238;2022-07-22T02:45:53;11.32;;;5.43;;
25569;SDS011;17955;45.542;9.238;2022-07-22T02:48:20;10.45;;;5.47;;
25569;SDS011;17955;45.542;9.238;2022-07-22T02:50:48;15.68;;;6.50;;
25569;SDS011;17955;45.542;9.238;2022-07-22T02:53:20;14.93;;;5.70;;
25569;SDS011;17955;45.542;9.238;2022-07-22T02:55:47;9.85;;;5.55;;
25569;SDS011;17955;45.542;9.238;2022-07-22T02:58:15;11.18;;;5.45;;
25569;SDS011;17955;45.542;9.238;2022-07-22T03:00:44;10.52;;;6.00;;
25569;SDS011;17955;45.542;9.238;2022-07-22T03:03:12;18.45;;;5.68;;
25569;SDS011;17955;45.542;9.238;2022-07-22T03:05:40;12.50;;;6.25;;
25569;SDS011;17955;45.542;9.238;2022-07-22T03:08:16;21.55;;;6.60;;
25569;SDS011;17955;45.542;9.238;2022-07-22T03:10:43;9.27;;;5.55;;
25569;SDS011;17955;45.542;9.238;2022-07-22T03:13:11;12.20;;;5.22;;
25569;SDS011;17955;45.542;9.238;2022-07-22T03:15:38;12.95;;;5.63;;
25569;SDS011;17955;45.542;9.238;2022-07-22T03:18:05;11.35;;;5.05;;
25569;SDS011;17955;45.542;9.238;2022-07-22T03:20:34;15.02;;;5.07;;
25569;SDS011;17955;45.542;9.238;2022-07-22T03:23:01;17.25;;;5.47;;
25569;SDS011;17955;45.542;9.238;2022-07-22T03:25:28;9.52;;;5.18;;
25569;SDS011;17955;45.542;9.238;2022-07-22T03:27:56;16.17;;;5.18;;
25569;SDS011;17955;45.542;9.238;2022-07-22T03:30:23;12.88;;;4.80;;
25569;SDS011;17955;45.542;9.238;2022-07-22T03:32:50;12.00;;;5.05;;
25569;SDS011;17955;45.542;9.238;2022-07-22T03:35:19;14.18;;;4.78;;
25569;SDS011;17955;45.542;9.238;2022-07-22T03:37:48;11.18;;;5.75;;
25569;SDS011;17955;45.542;9.238;2022-07-22T03:40:16;12.10;;;5.65;;
25569;SDS011;17955;45.542;9.238;2022-07-22T03:42:44;9.98;;;5.07;;
25569;SDS011;17955;45.542;9.238;2022-07-22T03:45:11;11.68;;;4.95;;
25569;SDS011;17955;45.542;9.238;2022-07-22T03:47:39;11.65;;;4.70;;
25569;SDS011;17955;45.542;9.238;2022-07-22T03:50:06;10.88;;;4.97;;
25569;SDS011;17955;45.542;9.238;2022-07-22T03:52:34;10.40;;;5.30;;
25569;SDS011;17955;45.542;9.238;2022-07-22T03:55:07;12.40;;;5.40;;
25569;SDS011;17955;45.542;9.238;2022-07-22T03:57:34;9.77;;;4.78;;
25569;SDS011;17955;45.542;9.238;2022-07-22T04:00:09;24.45;;;6.00;;
25569;SDS011;17955;45.542;9.238;2022-07-22T04:02:39;17.35;;;5.82;;
25569;SDS011;17955;45.542;9.238;2022-07-22T04:05:12;18.50;;;6.22;;
25569;SDS011;17955;45.542;9.238;2022-07-22T04:07:39;24.70;;;6.28;;
25569;SDS011;17955;45.542;9.238;2022-07-22T04:10:08;19.77;;;6.05;;
25569;SDS011;17955;45.542;9.238;2022-07-22T04:12:40;11.25;;;6.95;;
25569;SDS011;17955;45.542;9.238;2022-07-22T04:15:19;13.70;;;4.78;;
25569;SDS011;17955;45.542;9.238;2022-07-22T04:17:46;15.15;;;5.88;;
25569;SDS011;17955;45.542;9.238;2022-07-22T04:20:13;12.18;;;5.43;;
25569;SDS011;17955;45.542;9.238;2022-07-22T04:23:18;14.98;;;5.30;;
25569;SDS011;17955;45.542;9.238;2022-07-22T04:25:47;11.68;;;4.80;;
25569;SDS011;17955;45.542;9.238;2022-07-22T04:28:15;14.98;;;5.38;;
25569;SDS011;17955;45.542;9.238;2022-07-22T04:30:42;13.80;;;5.20;;
25569;SDS011;17955;45.542;9.238;2022-07-22T04:33:09;13.65;;;5.20;;
25569;SDS011;17955;45.542;9.238;2022-07-22T04:35:36;16.73;;;6.13;;
25569;SDS011;17955;45.542;9.238;2022-07-22T04:38:11;20.35;;;6.35;;
25569;SDS011;17955;45.542;9.238;2022-07-22T04:40:43;15.10;;;6.10;;
25569;SDS011;17955;45.542;9.238;2022-07-22T04:43:12;12.07;;;5.57;;
25569;SDS011;17955;45.542;9.238;2022-07-22T04:45:39;17.15;;;6.00;;
25569;SDS011;17955;45.542;9.238;2022-07-22T04:48:06;14.85;;;6.70;;
25569;SDS011;17955;45.542;9.238;2022-07-22T04:50:35;18.05;;;7.10;;
25569;SDS011;17955;45.542;9.238;2022-07-22T04:53:02;18.77;;;7.07;;
25569;SDS011;17955;45.542;9.238;2022-07-22T04:55:29;16.80;;;6.85;;
25569;SDS011;17955;45.542;9.238;2022-07-22T04:57:57;17.85;;;7.57;;
25569;SDS011;17955;45.542;9.238;2022-07-22T05:00:25;17.27;;;7.18;;
25569;SDS011;17955;45.542;9.238;2022-07-22T05:02:54;21.38;;;7.88;;
25569;SDS011;17955;45.542;9.238;2022-07-22T05:05:22;14.85;;;7.10;;
25569;SDS011;17955;45.542;9.238;2022-07-22T05:07:51;14.00;;;7.35;;
25569;SDS011;17955;45.542;9.238;2022-07-22T05:10:18;19.52;;;7.20;;
25569;SDS011;17955;45.542;9.238;2022-07-22T05:12:45;16.60;;;7.32;;
25569;SDS011;17955;45.542;9.238;2022-07-22T05:15:12;15.10;;;7.35;;
25569;SDS011;17955;45.542;9.238;2022-07-22T05:17:40;21.63;;;7.22;;
25569;SDS011;17955;45.542;9.238;2022-07-22T05:20:33;18.77;;;8.65;;
25569;SDS011;17955;45.542;9.238;2022-07-22T05:23:02;18.75;;;8.32;;
25569;SDS011;17955;45.542;9.238;2022-07-22T05:25:31;19.08;;;8.18;;
25569;SDS011;17955;45.542;9.238;2022-07-22T05:27:58;15.68;;;8.10;;
25569;SDS011;17955;45.542;9.238;2022-07-22T05:30:31;42.38;;;8.32;;
25569;SDS011;17955;45.542;9.238;2022-07-22T05:33:02;24.15;;;8.02;;
25569;SDS011;17955;45.542;9.238;2022-07-22T05:35:52;26.02;;;7.63;;
25569;SDS011;17955;45.542;9.238;2022-07-22T05:38:20;25.42;;;8.30;;
25569;SDS011;17955;45.542;9.238;2022-07-22T05:40:47;31.45;;;9.13;;
25569;SDS011;17955;45.542;9.238;2022-07-22T05:43:14;25.98;;;8.98;;
25569;SDS011;17955;45.542;9.238;2022-07-22T05:45:42;23.98;;;7.88;;
25569;SDS011;17955;45.542;9.238;2022-07-22T05:48:11;34.17;;;9.65;;
25569;SDS011;17955;45.542;9.238;2022-07-22T05:50:38;45.25;;;9.88;;
25569;SDS011;17955;45.542;9.238;2022-07-22T05:53:05;31.67;;;9.73;;
25569;SDS011;17955;45.542;9.238;2022-07-22T05:55:32;27.45;;;8.88;;
25569;SDS011;17955;45.542;9.238;2022-07-22T05:57:59;23.67;;;8.48;;
25569;SDS011;17955;45.542;9.238;2022-07-22T06:00:27;25.70;;;6.80;;
25569;SDS011;17955;45.542;9.238;2022-07-22T06:02:54;34.88;;;8.43;;
25569;SDS011;17955;45.542;9.238;2022-07-22T06:05:23;20.20;;;7.63;;
25569;SDS011;17955;45.542;9.238;2022-07-22T06:07:51;31.13;;;6.68;;
25569;SDS011;17955;45.542;9.238;2022-07-22T06:10:36;14.93;;;6.07;;
25569;SDS011;17955;45.542;9.238;2022-07-22T06:13:03;16.45;;;5.72;;
25569;SDS011;17955;45.542;9.238;2022-07-22T06:15:30;19.73;;;5.43;;
25569;SDS011;17955;45.542;9.238;2022-07-22T06:17:58;17.35;;;5.85;;
25569;SDS011;17955;45.542;9.238;2022-07-22T06:20:27;15.75;;;5.75;;
25569;SDS011;17955;45.542;9.238;2022-07-22T06:22:55;14.10;;;5.10;;
25569;SDS011;17955;45.542;9.238;2022-07-22T06:25:23;11.68;;;5.72;;
25569;SDS011;17955;45.542;9.238;2022-07-22T06:27:50;11.38;;;4.90;;
25569;SDS011;17955;45.542;9.238;2022-07-22T06:30:17;21.65;;;5.35;;
25569;SDS011;17955;45.542;9.238;2022-07-22T06:32:44;19.60;;;5.15;;
25569;SDS011;17955;45.542;9.238;2022-07-22T06:35:11;14.93;;;5.50;;
25569;SDS011;17955;45.542;9.238;2022-07-22T06:37:39;26.00;;;6.03;;
25569;SDS011;17955;45.542;9.238;2022-07-22T06:40:07;12.43;;;4.40;;
25569;SDS011;17955;45.542;9.238;2022-07-22T06:42:51;16.70;;;4.20;;
25569;SDS011;17955;45.542;9.238;2022-07-22T06:45:25;12.80;;;4.20;;
25569;SDS011;17955;45.542;9.238;2022-07-22T06:48:11;7.93;;;4.03;;
25569;SDS011;17955;45.542;9.238;2022-07-22T06:50:39;12.15;;;3.72;;
25569;SDS011;17955;45.542;9.238;2022-07-22T06:53:13;10.95;;;3.70;;
25569;SDS011;17955;45.542;9.238;2022-07-22T06:55:42;14.52;;;4.00;;
25569;SDS011;17955;45.542;9.238;2022-07-22T06:58:10;10.80;;;3.58;;
25569;SDS011;17955;45.542;9.238;2022-07-22T07:00:38;14.02;;;4.15;;
25569;SDS011;17955;45.542;9.238;2022-07-22T07:03:18;8.13;;;3.53;;
25569;SDS011;17955;45.542;9.238;2022-07-22T07:05:48;9.68;;;3.63;;
25569;SDS011;17955;45.542;9.238;2022-07-22T07:08:18;14.00;;;3.70;;
25569;SDS011;17955;45.542;9.238;2022-07-22T07:10:46;10.45;;;3.95;;
25569;SDS011;17955;45.542;9.238;2022-07-22T07:13:14;15.73;;;4.53;;
25569;SDS011;17955;45.542;9.238;2022-07-22T07:15:42;16.60;;;4.80;;
25569;SDS011;17955;45.542;9.238;2022-07-22T07:18:10;14.07;;;4.25;;
25569;SDS011;17955;45.542;9.238;2022-07-22T07:20:38;13.18;;;4.20;;
25569;SDS011;17955;45.542;9.238;2022-07-22T07:23:07;15.38;;;4.53;;
25569;SDS011;17955;45.542;9.238;2022-07-22T07:25:41;15.88;;;4.43;;
25569;SDS011;17955;45.542;9.238;2022-07-22T07:28:08;11.80;;;4.40;;
25569;SDS011;17955;45.542;9.238;2022-07-22T07:30:57;18.27;;;4.85;;
25569;SDS011;17955;45.542;9.238;2022-07-22T07:33:24;15.55;;;4.97;;
25569;SDS011;17955;45.542;9.238;2022-07-22T07:35:52;17.02;;;4.90;;
25569;SDS011;17955;45.542;9.238;2022-07-22T07:38:30;20.98;;;6.05;;
25569;SDS011;17955;45.542;9.238;2022-07-22T07:41:02;12.98;;;5.07;;
25569;SDS011;17955;45.542;9.238;2022-07-22T07:43:31;18.98;;;5.63;;
25569;SDS011;17955;45.542;9.238;2022-07-22T07:45:59;18.33;;;5.10;;
25569;SDS011;17955;45.542;9.238;2022-07-22T07:48:27;18.90;;;5.95;;
25569;SDS011;17955;45.542;9.238;2022-07-22T07:50:54;12.48;;;5.20;;
25569;SDS011;17955;45.542;9.238;2022-07-22T07:53:21;14.38;;;4.82;;
25569;SDS011;17955;45.542;9.238;2022-07-22T07:55:50;17.75;;;5.00;;
25569;SDS011;17955;45.542;9.238;2022-07-22T07:58:19;8.40;;;4.68;;
25569;SDS011;17955;45.542;9.238;2022-07-22T08:00:47;15.30;;;5.45;;
25569;SDS011;17955;45.542;9.238;2022-07-22T08:03:14;13.43;;;5.03;;
25569;SDS011;17955;45.542;9.238;2022-07-22T08:05:41;8.82;;;4.40;;
25569;SDS011;17955;45.542;9.238;2022-07-22T08:08:14;9.60;;;5.32;;
25569;SDS011;17955;45.542;9.238;2022-07-22T08:10:42;11.10;;;4.32;;
25569;SDS011;17955;45.542;9.238;2022-07-22T08:13:29;10.73;;;5.00;;
25569;SDS011;17955;45.542;9.238;2022-07-22T08:16:14;9.20;;;4.50;;
25569;SDS011;17955;45.542;9.238;2022-07-22T08:18:43;28.25;;;5.45;;
25569;SDS011;17955;45.542;9.238;2022-07-22T08:21:11;12.75;;;4.82;;
25569;SDS011;17955;45.542;9.238;2022-07-22T08:23:58;10.10;;;4.82;;
25569;SDS011;17955;45.542;9.238;2022-07-22T08:26:26;7.88;;;3.50;;
25569;SDS011;17955;45.542;9.238;2022-07-22T08:28:55;15.27;;;4.28;;
25569;SDS011;17955;45.542;9.238;2022-07-22T08:31:22;14.05;;;4.25;;
25569;SDS011;17955;45.542;9.238;2022-07-22T08:33:49;11.00;;;4.35;;
25569;SDS011;17955;45.542;9.238;2022-07-22T08:36:16;9.98;;;4.15;;
25569;SDS011;17955;45.542;9.238;2022-07-22T08:38:43;12.95;;;3.63;;
25569;SDS011;17955;45.542;9.238;2022-07-22T08:41:10;20.63;;;4.32;;
25569;SDS011;17955;45.542;9.238;2022-07-22T08:43:39;11.57;;;3.80;;
25569;SDS011;17955;45.542;9.238;2022-07-22T08:46:10;12.90;;;3.67;;
25569;SDS011;17955;45.542;9.238;2022-07-22T08:48:59;10.98;;;3.85;;
25569;SDS011;17955;45.542;9.238;2022-07-22T08:51:48;14.23;;;4.10;;
25569;SDS011;17955;45.542;9.238;2022-07-22T08:54:21;12.45;;;3.90;;
25569;SDS011;17955;45.542;9.238;2022-07-22T08:56:48;7.72;;;3.60;;
25569;SDS011;17955;45.542;9.238;2022-07-22T08:59:17;9.27;;;3.97;;
25569;SDS011;17955;45.542;9.238;2022-07-22T09:04:30;14.57;;;4.70;;
25569;SDS011;17955;45.542;9.238;2022-07-22T09:06:57;14.60;;;4.15;;
25569;SDS011;17955;45.542;9.238;2022-07-22T09:09:31;17.50;;;3.92;;
25569;SDS011;17955;45.542;9.238;2022-07-22T09:12:20;13.45;;;4.05;;
25569;SDS011;17955;45.542;9.238;2022-07-22T09:15:08;11.73;;;3.80;;
25569;SDS011;17955;45.542;9.238;2022-07-22T09:17:51;15.73;;;4.18;;
25569;SDS011;17955;45.542;9.238;2022-07-22T09:20:35;10.18;;;3.85;;
25569;SDS011;17955;45.542;9.238;2022-07-22T09:23:21;14.85;;;4.25;;
25569;SDS011;17955;45.542;9.238;2022-07-22T09:25:50;12.40;;;3.92;;
25569;SDS011;17955;45.542;9.238;2022-07-22T09:28:37;11.07;;;4.32;;
25569;SDS011;17955;45.542;9.238;2022-07-22T09:31:26;14.23;;;4.55;;
25569;SDS011;17955;45.542;9.238;2022-07-22T09:34:25;6.63;;;3.85;;
25569;SDS011;17955;45.542;9.238;2022-07-22T09:36:54;7.47;;;3.78;;
25569;SDS011;17955;45.542;9.238;2022-07-22T09:39:25;18.73;;;4.30;;
25569;SDS011;17955;45.542;9.238;2022-07-22T09:41:57;8.40;;;3.78;;
25569;SDS011;17955;45.542;9.238;2022-07-22T09:44:24;9.13;;;3.13;;
25569;SDS011;17955;45.542;9.238;2022-07-22T09:46:53;21.27;;;3.65;;
25569;SDS011;17955;45.542;9.238;2022-07-22T09:49:40;16.52;;;3.97;;
25569;SDS011;17955;45.542;9.238;2022-07-22T09:52:31;10.43;;;3.13;;
25569;SDS011;17955;45.542;9.238;2022-07-22T09:55:06;8.55;;;3.45;;
25569;SDS011;17955;45.542;9.238;2022-07-22T09:57:36;11.65;;;3.03;;
25569;SDS011;17955;45.542;9.238;2022-07-22T10:00:04;8.10;;;3.20;;
25569;SDS011;17955;45.542;9.238;2022-07-22T10:02:45;8.27;;;2.88;;
25569;SDS011;17955;45.542;9.238;2022-07-22T10:05:16;7.45;;;3.00;;
25569;SDS011;17955;45.542;9.238;2022-07-22T10:07:45;8.85;;;3.33;;
25569;SDS011;17955;45.542;9.238;2022-07-22T10:10:14;7.60;;;2.80;;
25569;SDS011;17955;45.542;9.238;2022-07-22T10:12:42;4.78;;;2.90;;
25569;SDS011;17955;45.542;9.238;2022-07-22T10:15:10;8.23;;;3.55;;
25569;SDS011;17955;45.542;9.238;2022-07-22T10:17:38;13.63;;;4.55;;
25569;SDS011;17955;45.542;9.238;2022-07-22T10:20:08;7.35;;;3.13;;
25569;SDS011;17955;45.542;9.238;2022-07-22T10:22:54;20.88;;;3.88;;
25569;SDS011;17955;45.542;9.238;2022-07-22T10:25:23;14.85;;;3.40;;
25569;SDS011;17955;45.542;9.238;2022-07-22T10:27:54;7.82;;;3.08;;
25569;SDS011;17955;45.542;9.238;2022-07-22T10:30:23;4.88;;;2.90;;
25569;SDS011;17955;45.542;9.238;2022-07-22T10:33:01;7.68;;;2.80;;
25569;SDS011;17955;45.542;9.238;2022-07-22T10:35:30;7.68;;;2.83;;
25569;SDS011;17955;45.542;9.238;2022-07-22T10:38:04;6.63;;;2.78;;
25569;SDS011;17955;45.542;9.238;2022-07-22T10:40:46;9.80;;;2.80;;
25569;SDS011;17955;45.542;9.238;2022-07-22T10:43:19;7.40;;;2.78;;
25569;SDS011;17955;45.542;9.238;2022-07-22T10:45:48;6.82;;;2.88;;
25569;SDS011;17955;45.542;9.238;2022-07-22T10:48:18;10.02;;;3.40;;
25569;SDS011;17955;45.542;9.238;2022-07-22T10:50:49;5.10;;;2.83;;
25569;SDS011;17955;45.542;9.238;2022-07-22T10:53:22;8.10;;;3.45;;
25569;SDS011;17955;45.542;9.238;2022-07-22T10:55:58;6.90;;;2.83;;
25569;SDS011;17955;45.542;9.238;2022-07-22T11:01:18;5.60;;;3.20;;
25569;SDS011;17955;45.542;9.238;2022-07-22T11:03:48;8.38;;;3.13;;
25569;SDS011;17955;45.542;9.238;2022-07-22T11:06:17;10.43;;;2.63;;
25569;SDS011;17955;45.542;9.238;2022-07-22T11:08:54;6.60;;;2.95;;
25569;SDS011;17955;45.542;9.238;2022-07-22T11:11:36;7.82;;;2.90;;
25569;SDS011;17955;45.542;9.238;2022-07-22T11:14:16;6.65;;;2.80;;
25569;SDS011;17955;45.542;9.238;2022-07-22T11:16:46;6.68;;;2.70;;
25569;SDS011;17955;45.542;9.238;2022-07-22T11:19:16;13.05;;;2.80;;
25569;SDS011;17955;45.542;9.238;2022-07-22T11:21:49;23.35;;;4.60;;
25569;SDS011;17955;45.542;9.238;2022-07-22T11:24:21;7.93;;;2.75;;
25569;SDS011;17955;45.542;9.238;2022-07-22T11:26:49;10.18;;;3.30;;
25569;SDS011;17955;45.542;9.238;2022-07-22T11:29:18;7.13;;;2.97;;
25569;SDS011;17955;45.542;9.238;2022-07-22T11:31:52;6.80;;;3.08;;
25569;SDS011;17955;45.542;9.238;2022-07-22T11:34:20;9.45;;;2.90;;
25569;SDS011;17955;45.542;9.238;2022-07-22T11:36:48;7.20;;;3.03;;
25569;SDS011;17955;45.542;9.238;2022-07-22T11:39:18;12.48;;;3.63;;
25569;SDS011;17955;45.542;9.238;2022-07-22T11:41:47;7.07;;;3.20;;
25569;SDS011;17955;45.542;9.238;2022-07-22T11:44:17;13.90;;;2.97;;
25569;SDS011;17955;45.542;9.238;2022-07-22T11:46:45;5.90;;;3.20;;
25569;SDS011;17955;45.542;9.238;2022-07-22T11:49:13;10.85;;;2.83;;
25569;SDS011;17955;45.542;9.238;2022-07-22T11:51:40;7.10;;;2.80;;
25569;SDS011;17955;45.542;9.238;2022-07-22T11:54:08;7.60;;;3.58;;
25569;SDS011;17955;45.542;9.238;2022-07-22T11:56:36;6.75;;;2.63;;
25569;SDS011;17955;45.542;9.238;2022-07-22T11:59:04;4.13;;;2.67;;
25569;SDS011;17955;45.542;9.238;2022-07-22T12:01:33;11.18;;;2.95;;
25569;SDS011;17955;45.542;9.238;2022-07-22T12:04:02;7.00;;;2.92;;
25569;SDS011;17955;45.542;9.238;2022-07-22T12:06:30;4.78;;;3.00;;
25569;SDS011;17955;45.542;9.238;2022-07-22T12:09:03;9.45;;;3.47;;
25569;SDS011;17955;45.542;9.238;2022-07-22T12:11:33;10.30;;;3.17;;
25569;SDS011;17955;45.542;9.238;2022-07-22T12:14:05;8.68;;;3.08;;
25569;SDS011;17955;45.542;9.238;2022-07-22T12:16:34;6.70;;;2.95;;
25569;SDS011;17955;45.542;9.238;2022-07-22T12:19:02;8.85;;;3.30;;
25569;SDS011;17955;45.542;9.238;2022-07-22T12:21:33;10.05;;;3.38;;
25569;SDS011;17955;45.542;9.238;2022-07-22T12:24:02;16.27;;;3.08;;
25569;SDS011;17955;45.542;9.238;2022-07-22T12:26:41;8.07;;;3.25;;
25569;SDS011;17955;45.542;9.238;2022-07-22T12:29:18;6.65;;;3.35;;
25569;SDS011;17955;45.542;9.238;2022-07-22T12:31:48;11.43;;;3.20;;
25569;SDS011;17955;45.542;9.238;2022-07-22T12:34:16;11.68;;;3.15;;
25569;SDS011;17955;45.542;9.238;2022-07-22T12:36:54;5.85;;;3.25;;
25569;SDS011;17955;45.542;9.238;2022-07-22T12:39:21;18.65;;;3.70;;
25569;SDS011;17955;45.542;9.238;2022-07-22T12:41:50;14.50;;;4.05;;
25569;SDS011;17955;45.542;9.238;2022-07-22T12:44:21;10.55;;;3.60;;
25569;SDS011;17955;45.542;9.238;2022-07-22T12:46:49;13.43;;;4.00;;
25569;SDS011;17955;45.542;9.238;2022-07-22T12:49:18;10.13;;;3.83;;
25569;SDS011;17955;45.542;9.238;2022-07-22T12:54:33;7.72;;;3.50;;
25569;SDS011;17955;45.542;9.238;2022-07-22T12:57:01;8.02;;;3.70;;
25569;SDS011;17955;45.542;9.238;2022-07-22T12:59:29;8.55;;;3.70;;
25569;SDS011;17955;45.542;9.238;2022-07-22T13:01:57;12.50;;;4.13;;
25569;SDS011;17955;45.542;9.238;2022-07-22T13:04:24;11.90;;;3.92;;
25569;SDS011;17955;45.542;9.238;2022-07-22T13:06:51;11.50;;;3.72;;
25569;SDS011;17955;45.542;9.238;2022-07-22T13:09:18;7.35;;;3.20;;
25569;SDS011;17955;45.542;9.238;2022-07-22T13:11:45;9.85;;;3.67;;
25569;SDS011;17955;45.542;9.238;2022-07-22T13:14:12;9.77;;;3.13;;
25569;SDS011;17955;45.542;9.238;2022-07-22T13:16:41;15.48;;;3.58;;
25569;SDS011;17955;45.542;9.238;2022-07-22T13:19:08;8.25;;;3.45;;
25569;SDS011;17955;45.542;9.238;2022-07-22T13:21:35;13.48;;;4.30;;
25569;SDS011;17955;45.542;9.238;2022-07-22T13:24:02;11.15;;;3.67;;
25569;SDS011;17955;45.542;9.238;2022-07-22T13:26:30;8.35;;;3.55;;
25569;SDS011;17955;45.542;9.238;2022-07-22T13:28:57;13.18;;;3.55;;
25569;SDS011;17955;45.542;9.238;2022-07-22T13:31:24;15.48;;;3.80;;
25569;SDS011;17955;45.542;9.238;2022-07-22T13:33:53;15.82;;;3.78;;
25569;SDS011;17955;45.542;9.238;2022-07-22T13:36:20;9.90;;;3.67;;
25569;SDS011;17955;45.542;9.238;2022-07-22T13:38:49;31.67;;;5.15;;
25569;SDS011;17955;45.542;9.238;2022-07-22T13:41:17;7.72;;;3.58;;
25569;SDS011;17955;45.542;9.238;2022-07-22T13:43:44;8.18;;;3.35;;
25569;SDS011;17955;45.542;9.238;2022-07-22T13:46:13;8.35;;;3.40;;
25569;SDS011;17955;45.542;9.238;2022-07-22T13:48:41;4.70;;;3.10;;
25569;SDS011;17955;45.542;9.238;2022-07-22T13:51:09;26.45;;;4.85;;
25569;SDS011;17955;45.542;9.238;2022-07-22T13:53:36;9.05;;;3.60;;
25569;SDS011;17955;45.542;9.238;2022-07-22T13:56:04;9.65;;;3.50;;
25569;SDS011;17955;45.542;9.238;2022-07-22T13:58:31;6.38;;;3.33;;
25569;SDS011;17955;45.542;9.238;2022-07-22T14:00:59;7.13;;;3.83;;
25569;SDS011;17955;45.542;9.238;2022-07-22T14:03:26;8.43;;;3.55;;
25569;SDS011;17955;45.542;9.238;2022-07-22T14:05:54;16.45;;;3.85;;
25569;SDS011;17955;45.542;9.238;2022-07-22T14:08:22;9.13;;;3.30;;
25569;SDS011;17955;45.542;9.238;2022-07-22T14:10:49;12.07;;;4.15;;
25569;SDS011;17955;45.542;9.238;2022-07-22T14:13:16;8.30;;;4.07;;
25569;SDS011;17955;45.542;9.238;2022-07-22T14:15:43;6.60;;;3.40;;
25569;SDS011;17955;45.542;9.238;2022-07-22T14:18:10;8.40;;;3.60;;
25569;SDS011;17955;45.542;9.238;2022-07-22T14:20:37;6.38;;;3.47;;
25569;SDS011;17955;45.542;9.238;2022-07-22T14:23:05;7.43;;;3.47;;
25569;SDS011;17955;45.542;9.238;2022-07-22T14:25:36;15.85;;;3.22;;
25569;SDS011;17955;45.542;9.238;2022-07-22T14:28:04;7.93;;;3.50;;
25569;SDS011;17955;45.542;9.238;2022-07-22T14:30:32;8.23;;;3.42;;
25569;SDS011;17955;45.542;9.238;2022-07-22T14:33:02;9.73;;;3.70;;
25569;SDS011;17955;45.542;9.238;2022-07-22T14:35:29;9.25;;;3.58;;
25569;SDS011;17955;45.542;9.238;2022-07-22T14:37:59;18.73;;;3.65;;
25569;SDS011;17955;45.542;9.238;2022-07-22T14:40:26;8.90;;;3.45;;
25569;SDS011;17955;45.542;9.238;2022-07-22T14:42:54;14.68;;;4.43;;
25569;SDS011;17955;45.542;9.238;2022-07-22T14:45:21;10.45;;;3.33;;
25569;SDS011;17955;45.542;9.238;2022-07-22T14:47:48;10.73;;;3.63;;
25569;SDS011;17955;45.542;9.238;2022-07-22T14:50:15;14.00;;;3.55;;
25569;SDS011;17955;45.542;9.238;2022-07-22T14:52:42;11.15;;;3.53;;
25569;SDS011;17955;45.542;9.238;2022-07-22T14:55:09;9.70;;;3.33;;
25569;SDS011;17955;45.542;9.238;2022-07-22T14:57:36;13.95;;;3.45;;
25569;SDS011;17955;45.542;9.238;2022-07-22T15:00:05;14.55;;;3.88;;
25569;SDS011;17955;45.542;9.238;2022-07-22T15:02:33;8.25;;;3.33;;